KCAO/CAO METAR and TAF weather

Enter ICAO airport designator
Station Type Date Time Source
KCAO METAR 2019/12/11 14:55 UTC NOAA

KCAO 111455Z AUTO 26003KT 10SM CLR 03/M04 A3023 RMK AO2 SLP249 T00281044 50005


Station Type Date Time Source
KCAO Decoded METAR 2019/12/11 14:55 UTC NOAA

CLAYTON MUNICIPAL AIRPARK, NM, United States (KCAO) 36-27N 103-09W 1514M
Dec 11, 2019 - 09:55 AM EST / 2019.12.11 1455 UTC
Wind: from the W (260 degrees) at 3 MPH (3 KT):0
Visibility: 10 mile(s):0
Sky conditions: clear
Temperature: 37.0 F (2.8 C)
Dew Point: 24.1 F (-4.4 C)
Relative Humidity: 59%
Pressure (altimeter): 30.23 in. Hg (1023 hPa)
Pressure tendency: 0.01 inches (0.5 hPa) higher than three hours ago
ob: KCAO 111455Z AUTO 26003KT 10SM CLR 03/M04 A3023 RMK AO2 SLP249 T00281044 50005
cycle: 15

Station Type Date Time Source
KCAO TAF UTC NOAA

Error!

Example: see airport list